Time;durP1;ratioP1;P1;durP2;ratioP2;P2;SDS_P1;SDS_P2;PMS_P1;PMS_P2;Temp;Humidity;BMP_temperature;BMP_pressure;BME280_temperature;BME280_humidity;BME280_pressure;Samples;Min_cycle;Max_cycle;Signal;HPM_P1;HPM_P2
2022/06/05 00:06:55;;;;;;;15.68;7.97;;;;;;;14.62;82.49;101981.72;20933486;28;20055;-70
2022/06/05 00:17:20;;;;;;;12.93;8.80;;;;;;;14.55;81.67;101963.81;20947408;28;20049;-68
2022/06/05 00:28:11;;;;;;;14.15;8.80;;;;;;;14.58;83.53;101938.22;20934552;28;20049;-68
2022/06/05 00:39:00;;;;;;;15.38;10.30;;;;;;;14.35;85.00;101929.28;20945581;28;20052;-67
2022/06/05 00:49:24;;;;;;;14.85;9.70;;;;;;;14.25;82.01;101913.25;20917191;28;20493;-68
2022/06/05 00:59:48;;;;;;;16.88;10.40;;;;;;;14.24;82.03;101914.19;20954333;28;20057;-68
2022/06/05 01:10:10;;;;;;;19.40;10.20;;;;;;;14.18;83.21;101895.38;20952934;28;20054;-68
2022/06/05 01:20:41;;;;;;;14.65;10.50;;;;;;;14.09;83.12;101901.16;20928392;28;20044;-68
2022/06/05 01:31:12;;;;;;;17.55;10.50;;;;;;;13.98;83.83;101882.63;20918805;28;20041;-67
2022/06/05 01:41:57;;;;;;;17.47;11.30;;;;;;;14.00;85.48;101865.88;20918647;28;20075;-68
2022/06/05 01:52:26;;;;;;;16.67;11.55;;;;;;;13.79;84.10;101866.34;20911251;28;20291;-69
2022/06/05 02:03:11;;;;;;;18.85;12.07;;;;;;;13.89;86.15;101854.34;20918267;28;20559;-67
2022/06/05 02:13:33;;;;;;;14.77;11.73;;;;;;;13.83;83.25;101849.47;20936517;28;20048;-68
2022/06/05 02:23:56;;;;;;;19.77;11.38;;;;;;;13.78;83.58;101841.06;20919267;28;20051;-67
2022/06/05 02:34:22;;;;;;;14.38;11.80;;;;;;;13.77;84.02;101836.78;20923897;28;20043;-68
2022/06/05 02:44:55;;;;;;;14.00;11.10;;;;;;;13.77;83.36;101826.28;20903167;28;20044;-67
2022/06/05 02:55:20;;;;;;;15.95;11.20;;;;;;;13.72;82.96;101817.84;20908962;28;20055;-68
2022/06/05 03:05:42;;;;;;;16.30;10.68;;;;;;;13.66;83.77;101816.47;20906560;28;20052;-68
2022/06/05 03:16:03;;;;;;;;;;;;;;;13.71;88.06;101822.28;20910450;28;20051;-67
2022/06/05 03:26:26;;;;;;;16.50;10.70;;;;;;;13.64;82.91;101804.41;20918021;28;19924;-67
2022/06/05 03:36:47;;;;;;;14.52;10.27;;;;;;;13.66;82.31;101789.44;20923093;28;20051;-67
2022/06/05 03:47:10;;;;;;;13.13;10.82;;;;;;;13.68;82.25;101770.03;20916497;28;20049;-67
2022/06/05 03:57:32;;;;;;;13.48;9.30;;;;;;;13.77;81.52;101758.16;20927597;28;20068;-67
2022/06/05 04:07:55;;;;;;;13.02;9.15;;;;;;;13.85;81.23;101729.66;20937278;28;20588;-68
2022/06/05 04:18:17;;;;;;;12.98;9.45;;;;;;;13.93;80.67;101722.16;20910084;28;20045;-67
2022/06/05 04:28:39;;;;;;;12.13;8.77;;;;;;;14.03;80.50;101725.88;20908341;28;20484;-68
2022/06/05 04:39:00;;;;;;;12.75;7.88;;;;;;;14.22;80.33;101723.78;20910646;28;20041;-67
2022/06/05 04:49:22;;;;;;;11.05;7.85;;;;;;;14.35;79.39;101719.41;20905519;28;20047;-70
2022/06/05 04:59:43;;;;;;;10.88;8.27;;;;;;;14.51;79.57;101706.03;20903439;28;20497;-68
2022/06/05 05:10:06;;;;;;;13.35;8.50;;;;;;;14.72;78.69;101694.06;20924606;28;20045;-68
2022/06/05 05:20:27;;;;;;;12.00;7.95;;;;;;;14.86;78.88;101696.59;20917060;28;20057;-67
2022/06/05 05:30:49;;;;;;;11.75;8.00;;;;;;;15.02;78.49;101694.59;20942751;28;20041;-68
2022/06/05 05:51:51;;;;;;;10.85;7.18;;;;;;;15.54;77.36;101705.81;20913810;28;20300;-69
2022/06/05 06:02:16;;;;;;;;;;;;;;;15.89;81.32;101701.47;20924920;28;20088;-69
2022/06/05 06:12:38;;;;;;;9.65;6.93;;;;;;;16.16;75.49;101699.44;20920786;28;20281;-71
2022/06/05 06:22:59;;;;;;;;;;;;;;;16.42;79.25;101701.06;20945926;28;20456;-71
2022/06/05 06:33:21;;;;;;;8.55;6.13;;;;;;;16.66;74.98;101692.16;20923999;28;20388;-70
2022/06/05 06:43:44;;;;;;;7.05;5.70;;;;;;;17.02;73.99;101686.69;20910945;28;20503;-70
2022/06/05 06:54:06;;;;;;;8.25;4.82;;;;;;;17.39;72.89;101683.72;20891386;28;20036;-70
2022/06/05 07:04:28;;;;;;;5.25;4.28;;;;;;;17.75;72.28;101667.59;20899385;28;20051;-68
2022/06/05 07:14:50;;;;;;;6.57;4.47;;;;;;;18.11;71.61;101651.41;20921425;28;20045;-68
2022/06/05 07:25:11;;;;;;;9.13;4.93;;;;;;;18.39;71.15;101638.47;20915836;28;20132;-67
2022/06/05 07:35:33;;;;;;;6.20;4.47;;;;;;;18.71;70.57;101637.41;20904566;28;20044;-67
2022/06/05 07:45:56;;;;;;;6.05;4.10;;;;;;;19.02;70.30;101639.09;20911778;28;20045;-69
2022/06/05 07:56:18;;;;;;;8.45;4.20;;;;;;;19.35;70.19;101641.47;20895036;28;20068;-67
2022/06/05 08:06:40;;;;;;;6.47;4.05;;;;;;;19.78;69.52;101623.44;20908155;28;20036;-68
2022/06/05 08:17:08;;;;;;;5.50;3.80;;;;;;;20.11;68.18;101620.41;20912702;28;20075;-68
2022/06/05 08:27:30;;;;;;;5.78;3.63;;;;;;;20.42;68.58;101610.31;20932075;28;20045;-68
2022/06/05 08:48:47;;;;;;;5.90;3.53;;;;;;;20.96;66.18;101568.03;20929574;28;20500;-65
2022/06/05 08:59:24;;;;;;;3.50;3.20;;;;;;;21.23;65.05;101545.97;20926578;28;20047;-69
2022/06/05 09:09:55;;;;;;;4.68;3.10;;;;;;;21.34;66.29;101536.00;20906681;28;20048;-67
2022/06/05 09:20:17;;;;;;;5.93;3.45;;;;;;;21.44;67.75;101532.31;20903101;28;20053;-66
2022/06/05 09:30:45;;;;;;;4.50;2.92;;;;;;;21.69;66.99;101509.47;20903963;28;20037;-66
2022/06/05 09:41:31;;;;;;;6.93;3.60;;;;;;;21.81;63.12;101495.00;20922788;28;20063;-67
2022/06/05 09:51:53;;;;;;;3.25;2.90;;;;;;;22.10;67.10;101476.94;20915285;28;20041;-67
2022/06/05 10:02:19;;;;;;;5.88;3.10;;;;;;;22.41;64.89;101471.81;20906589;28;20037;-67
2022/06/05 10:12:55;;;;;;;3.53;3.03;;;;;;;22.58;63.18;101451.47;20917325;28;20106;-67
2022/06/05 10:23:36;;;;;;;3.42;2.95;;;;;;;22.72;61.35;101457.00;20912100;28;20043;-67
2022/06/05 10:34:31;;;;;;;3.30;2.80;;;;;;;23.08;58.11;101462.94;20896822;28;20469;-65
2022/06/05 10:45:14;;;;;;;6.05;3.28;;;;;;;23.54;59.62;101447.19;20908840;28;20453;-65
2022/06/05 10:55:50;;;;;;;4.63;2.58;;;;;;;23.85;61.04;101442.88;20894789;28;20048;-68
2022/06/05 11:06:36;;;;;;;3.03;2.20;;;;;;;24.20;53.98;101437.97;20897026;28;20059;-67
2022/06/05 11:17:26;;;;;;;3.53;2.55;;;;;;;24.51;52.90;101402.38;20902242;28;20062;-67
2022/06/05 11:27:58;;;;;;;;;;;;;;;24.61;51.84;101392.31;20919376;28;20056;-63
2022/06/05 11:38:35;;;;;;;4.68;2.25;;;;;;;24.85;52.57;101368.19;20889721;28;20395;-64
2022/06/05 11:49:10;;;;;;;4.25;2.15;;;;;;;24.76;63.10;101361.22;20916266;28;20048;-67
2022/06/05 11:59:39;;;;;;;6.18;2.40;;;;;;;24.81;61.06;101334.84;20924342;28;20389;-67
2022/06/05 12:10:23;;;;;;;3.10;2.30;;;;;;;24.82;54.28;101325.00;20918516;28;21580;-66
2022/06/05 12:20:55;;;;;;;4.20;2.30;;;;;;;24.89;60.21;101310.75;20925064;28;20044;-69
2022/06/05 12:31:19;;;;;;;2.97;2.20;;;;;;;24.90;60.34;101275.06;20932205;28;20041;-69
2022/06/05 12:41:44;;;;;;;2.88;2.25;;;;;;;24.98;62.13;101283.03;20913486;28;20041;-70
2022/06/05 12:52:25;;;;;;;3.45;2.33;;;;;;;24.88;52.97;101282.44;20915822;28;20044;-71
2022/06/05 13:02:54;;;;;;;3.85;2.30;;;;;;;24.91;57.88;101271.38;20910964;28;20049;-71
2022/06/05 13:13:38;;;;;;;2.65;2.35;;;;;;;24.89;60.30;101275.25;20902899;28;20128;-69
2022/06/05 13:24:28;;;;;;;5.10;2.35;;;;;;;24.77;54.13;101250.84;20926819;28;20095;-70
2022/06/05 13:35:07;;;;;;;4.93;2.60;;;;;;;24.58;53.79;101234.50;20918779;28;20045;-70
2022/06/05 13:45:37;;;;;;;;;;;;;;;24.39;50.77;101216.28;20924519;28;20049;-70
2022/06/05 13:56:03;;;;;;;2.93;2.43;;;;;;;24.44;62.31;101208.56;20922321;28;19920;-68
2022/06/05 14:06:45;;;;;;;3.60;2.30;;;;;;;24.38;54.19;101198.63;20906337;28;20052;-69
2022/06/05 14:17:15;;;;;;;6.38;2.38;;;;;;;24.31;63.36;101186.16;20889063;28;20049;-69
2022/06/05 14:27:37;;;;;;;6.63;2.60;;;;;;;24.15;63.45;101176.47;20908680;28;20045;-70
2022/06/05 14:38:30;;;;;;;5.10;2.90;;;;;;;23.94;59.43;101173.59;20920731;28;20048;-70
2022/06/05 14:49:10;;;;;;;22.58;14.68;;;;;;;23.68;63.62;101166.91;20913849;28;20064;-67
2022/06/05 14:59:35;;;;;;;60.28;39.85;;;;;;;23.55;65.53;101156.00;20902540;28;20045;-67
2022/06/05 15:10:03;;;;;;;43.97;28.20;;;;;;;23.39;67.55;101151.56;20906198;28;20051;-67
2022/06/05 15:21:16;;;;;;;7.22;4.30;;;;;;;23.29;65.89;101134.13;20904778;28;20078;-68
2022/06/05 15:32:19;;;;;;;5.57;4.20;;;;;;;23.18;68.48;101147.81;20875949;28;20041;-68
2022/06/05 15:42:46;;;;;;;51.97;33.55;;;;;;;23.05;70.23;101142.19;20895129;28;20045;-69
2022/06/05 15:53:29;;;;;;;6.10;3.88;;;;;;;22.83;72.46;101118.16;20895882;28;20791;-68
2022/06/05 16:04:03;;;;;;;4.10;3.70;;;;;;;22.68;71.94;101107.41;20911818;28;20053;-68
2022/06/05 16:14:44;;;;;;;6.03;3.90;;;;;;;22.74;71.15;101093.41;20905154;28;20045;-68
2022/06/05 16:25:21;;;;;;;4.60;4.20;;;;;;;22.63;73.30;101104.41;20886765;28;20048;-68
2022/06/05 16:46:35;;;;;;;6.65;5.57;;;;;;;22.17;74.26;101084.81;20919630;28;20131;-68
2022/06/05 16:57:13;;;;;;;8.88;6.70;;;;;;;22.00;73.35;101076.03;20932107;28;20051;-68
2022/06/05 17:07:50;;;;;;;8.07;6.65;;;;;;;21.81;77.63;101036.53;20931210;28;20381;-68
2022/06/05 17:18:35;;;;;;;9.10;7.05;;;;;;;21.57;76.34;101006.47;20907920;28;20661;-68
2022/06/05 17:29:09;;;;;;;30.02;9.95;;;;;;;21.51;78.13;101001.81;20917726;28;20044;-68
2022/06/05 17:40:17;;;;;;;10.18;6.70;;;;;;;21.54;80.85;101004.13;20948142;28;20109;-67
2022/06/05 17:50:50;;;;;;;12.27;7.43;;;;;;;21.29;80.80;101002.41;20929522;28;20041;-68
2022/06/05 18:01:39;;;;;;;7.53;5.80;;;;;;;21.01;79.42;100982.47;20935375;28;20405;-69
2022/06/05 18:12:12;;;;;;;8.47;5.23;;;;;;;20.78;81.62;100976.09;20937114;28;20095;-68
2022/06/05 18:22:45;;;;;;;7.93;5.30;;;;;;;20.55;82.30;100953.78;20921117;28;20056;-68
2022/06/05 18:33:38;;;;;;;6.68;5.60;;;;;;;20.35;83.80;100940.94;20907083;28;20386;-69
2022/06/05 18:44:00;;;;;;;5.50;4.88;;;;;;;20.24;80.57;100927.13;20916345;28;20041;-68
2022/06/05 18:54:27;;;;;;;6.68;5.05;;;;;;;20.15;79.93;100913.03;20910097;28;20588;-69
2022/06/05 19:05:01;;;;;;;5.45;4.93;;;;;;;20.08;82.44;100916.47;20943933;28;20052;-68
2022/06/05 19:15:38;;;;;;;6.50;5.10;;;;;;;19.88;83.78;100931.69;20932014;28;20786;-69
2022/06/05 19:26:03;;;;;;;7.10;6.03;;;;;;;19.80;81.24;100920.22;20924726;28;20045;-67
2022/06/05 19:47:33;;;;;;;10.02;6.90;;;;;;;19.61;89.05;100931.00;20917573;28;20072;-66
2022/06/05 19:57:55;;;;;;;7.53;6.03;;;;;;;19.15;84.79;100919.84;20914546;28;20056;-68
2022/06/05 20:08:23;;;;;;;8.15;6.20;;;;;;;18.93;86.60;100889.38;20913173;28;20047;-69
2022/06/05 20:18:47;;;;;;;6.78;6.10;;;;;;;18.54;88.20;100866.03;20930322;28;20052;-67
2022/06/05 20:29:30;;;;;;;8.30;6.72;;;;;;;18.51;87.40;100848.66;20934468;28;20071;-67
2022/06/05 20:39:59;;;;;;;9.20;6.45;;;;;;;18.43;89.40;100832.75;20910195;28;20056;-68
2022/06/05 20:50:42;;;;;;;8.00;6.65;;;;;;;18.46;90.47;100815.75;20931043;28;20043;-67
2022/06/05 21:01:07;;;;;;;7.68;6.68;;;;;;;18.37;87.77;100794.69;20933914;28;20041;-67
2022/06/05 21:22:11;;;;;;;9.73;6.40;;;;;;;18.41;88.55;100768.69;20930212;28;20156;-68
2022/06/05 21:32:33;;;;;;;9.07;6.80;;;;;;;18.46;88.29;100763.81;20906451;28;20044;-67
2022/06/05 21:42:56;;;;;;;9.38;7.43;;;;;;;18.49;88.90;100749.47;20911632;28;20049;-67
2022/06/05 21:53:28;;;;;;;11.73;7.95;;;;;;;18.59;88.54;100753.69;20929913;28;20110;-67
2022/06/05 22:03:50;;;;;;;9.20;8.30;;;;;;;18.62;88.93;100748.13;20924896;28;20393;-68
2022/06/05 22:14:19;;;;;;;9.70;8.70;;;;;;;18.68;89.05;100746.69;20931203;28;20125;-68
2022/06/05 22:24:41;;;;;;;10.57;9.32;;;;;;;18.73;88.39;100734.66;20911190;28;20140;-67
2022/06/05 22:35:03;;;;;;;14.80;9.70;;;;;;;18.76;89.35;100718.53;20929257;28;20049;-67
2022/06/05 22:45:24;;;;;;;11.60;9.00;;;;;;;18.86;89.13;100708.69;20915985;28;20045;-67
2022/06/05 22:55:46;;;;;;;9.20;8.38;;;;;;;18.89;89.29;100703.09;20917576;28;20040;-67
2022/06/05 23:06:08;;;;;;;7.40;6.70;;;;;;;18.87;88.35;100681.28;20907170;28;20045;-67
2022/06/05 23:16:31;;;;;;;9.90;6.00;;;;;;;18.84;88.86;100673.66;20937780;28;20116;-67
2022/06/05 23:26:54;;;;;;;7.15;5.55;;;;;;;18.74;89.16;100662.38;20908091;28;20132;-68
2022/06/05 23:37:16;;;;;;;6.45;5.85;;;;;;;18.78;87.46;100661.06;20907051;28;20401;-67
2022/06/05 23:47:38;;;;;;;7.03;6.32;;;;;;;18.77;87.17;100646.22;20931708;28;20041;-67
2022/06/05 23:58:00;;;;;;;8.27;7.00;;;;;;;18.73;86.14;100633.44;20940463;28;20063;-67
